Time;durP1;ratioP1;P1;durP2;ratioP2;P2;SDS_P1;SDS_P2;PMS_P1;PMS_P2;Temp;Humidity;BMP_temperature;BMP_pressure;BME280_temperature;BME280_humidity;BME280_pressure;Samples;Min_cycle;Max_cycle;Signal;HPM_P1;HPM_P2
2022/02/16 00:00:10;;;;;;;37.58;24.70;;;;;;;;;;5134871;27;20076;-73
2022/02/16 00:02:38;;;;;;;57.50;29.55;;;;;;;;;;5134164;27;20098;-73
2022/02/16 00:05:05;;;;;;;53.83;30.30;;;;;;;;;;5134644;27;20022;-73
2022/02/16 00:07:31;;;;;;;41.72;24.27;;;;;;;;;;5134163;27;20021;-73
2022/02/16 00:09:57;;;;;;;36.15;21.10;;;;;;;;;;5133777;27;20027;-73
2022/02/16 00:12:23;;;;;;;29.27;17.60;;;;;;;;;;5134370;27;20402;-73
2022/02/16 00:14:49;;;;;;;27.88;15.57;;;;;;;;;;5133795;27;20047;-73
2022/02/16 00:17:15;;;;;;;27.55;16.80;;;;;;;;;;5133906;28;20015;-73
2022/02/16 00:19:42;;;;;;;28.83;16.15;;;;;;;;;;5134102;28;20077;-73
2022/02/16 00:22:08;;;;;;;30.25;19.40;;;;;;;;;;5134023;28;20027;-73
2022/02/16 00:24:34;;;;;;;47.35;25.27;;;;;;;;;;5133644;28;20032;-73
2022/02/16 00:27:00;;;;;;;37.35;23.63;;;;;;;;;;5132751;28;20390;-73
2022/02/16 00:29:26;;;;;;;41.25;23.98;;;;;;;;;;5133986;28;20023;-73
2022/02/16 00:31:53;;;;;;;31.85;19.85;;;;;;;;;;5133579;28;20023;-74
2022/02/16 00:34:19;;;;;;;23.55;14.73;;;;;;;;;;5133760;28;20104;-73
2022/02/16 00:36:45;;;;;;;18.40;12.75;;;;;;;;;;5135952;27;20498;-73
2022/02/16 00:39:11;;;;;;;18.88;12.05;;;;;;;;;;5137907;27;20450;-74
2022/02/16 00:41:37;;;;;;;20.55;12.35;;;;;;;;;;5138397;27;20019;-73
2022/02/16 00:44:04;;;;;;;17.80;11.85;;;;;;;;;;5137962;27;20015;-73
2022/02/16 00:46:30;;;;;;;21.38;13.65;;;;;;;;;;5137736;27;20031;-73
2022/02/16 00:48:56;;;;;;;25.33;14.90;;;;;;;;;;5138008;27;20065;-73
2022/02/16 00:51:22;;;;;;;26.92;15.27;;;;;;;;;;5138081;27;20019;-74
2022/02/16 00:53:49;;;;;;;28.65;15.02;;;;;;;;;;5137645;27;20029;-74
2022/02/16 00:56:15;;;;;;;23.50;12.60;;;;;;;;;;5138047;27;20436;-73
2022/02/16 00:58:41;;;;;;;21.67;12.02;;;;;;;;;;5136219;27;20046;-74
2022/02/16 01:01:07;;;;;;;18.10;11.13;;;;;;;;;;5137742;27;20098;-73
2022/02/16 01:03:33;;;;;;;19.38;11.60;;;;;;;;;;5136325;27;20023;-73
2022/02/16 01:05:59;;;;;;;16.90;10.40;;;;;;;;;;5135951;27;20028;-73
2022/02/16 01:08:26;;;;;;;24.85;11.27;;;;;;;;;;5137542;27;20027;-73
2022/02/16 01:10:52;;;;;;;17.55;10.25;;;;;;;;;;5137631;27;20028;-73
2022/02/16 01:13:18;;;;;;;16.40;10.60;;;;;;;;;;5137181;27;20027;-73
2022/02/16 01:15:44;;;;;;;16.20;9.95;;;;;;;;;;5137142;27;20051;-73
2022/02/16 01:18:10;;;;;;;23.23;11.93;;;;;;;;;;5136269;27;20023;-73
2022/02/16 01:20:38;;;;;;;21.20;12.15;;;;;;;;;;5137100;27;20099;-73
2022/02/16 01:23:04;;;;;;;17.00;10.75;;;;;;;;;;5137369;27;20015;-73
2022/02/16 01:25:30;;;;;;;24.42;12.48;;;;;;;;;;5137102;27;20023;-73
2022/02/16 01:27:57;;;;;;;20.95;11.93;;;;;;;;;;5137114;27;20033;-73
2022/02/16 01:30:23;;;;;;;21.25;12.30;;;;;;;;;;5137110;27;20030;-73
2022/02/16 01:32:49;;;;;;;20.08;10.63;;;;;;;;;;5135788;27;20015;-74
2022/02/16 01:35:15;;;;;;;20.65;11.70;;;;;;;;;;5136648;27;20031;-74
2022/02/16 01:37:41;;;;;;;25.48;15.55;;;;;;;;;;5137075;27;20137;-73
2022/02/16 01:40:08;;;;;;;30.52;17.80;;;;;;;;;;5135510;27;20087;-73
2022/02/16 01:42:34;;;;;;;28.67;16.52;;;;;;;;;;5135307;27;20402;-74
2022/02/16 01:45:00;;;;;;;25.77;15.45;;;;;;;;;;5136886;27;20019;-73
2022/02/16 01:47:26;;;;;;;21.85;13.65;;;;;;;;;;5135057;27;20118;-73
2022/02/16 01:49:52;;;;;;;24.08;13.80;;;;;;;;;;5135078;27;20023;-73
2022/02/16 01:52:19;;;;;;;20.30;12.20;;;;;;;;;;5136724;27;20042;-73
2022/02/16 01:54:45;;;;;;;19.15;12.65;;;;;;;;;;5136509;27;20031;-74
2022/02/16 01:57:13;;;;;;;21.52;13.68;;;;;;;;;;5136206;27;20026;-73
2022/02/16 01:59:39;;;;;;;22.35;13.95;;;;;;;;;;5136580;27;20023;-74
2022/02/16 02:02:07;;;;;;;29.60;14.45;;;;;;;;;;5136163;27;20049;-73
2022/02/16 02:04:33;;;;;;;22.90;13.73;;;;;;;;;;5135195;27;20024;-73
2022/02/16 02:06:59;;;;;;;26.77;14.25;;;;;;;;;;5136363;27;20121;-73
2022/02/16 02:09:25;;;;;;;23.13;13.30;;;;;;;;;;5134703;27;20460;-72
2022/02/16 02:11:52;;;;;;;21.20;12.63;;;;;;;;;;5136393;27;20056;-74
2022/02/16 02:14:18;;;;;;;21.38;11.38;;;;;;;;;;5135969;27;20195;-73
2022/02/16 02:16:44;;;;;;;21.05;11.98;;;;;;;;;;5135900;27;20050;-73
2022/02/16 02:19:11;;;;;;;21.52;11.90;;;;;;;;;;5136221;27;20023;-73
2022/02/16 02:21:37;;;;;;;21.40;11.30;;;;;;;;;;5134797;27;20031;-73
2022/02/16 02:24:04;;;;;;;18.45;11.25;;;;;;;;;;5134446;27;20023;-73
2022/02/16 02:26:30;;;;;;;18.80;11.50;;;;;;;;;;5136053;27;20466;-73
2022/02/16 02:28:56;;;;;;;18.80;11.38;;;;;;;;;;5134694;27;20023;-73
2022/02/16 02:31:33;;;;;;;18.83;10.77;;;;;;;;;;5135508;27;20102;-73
2022/02/16 02:33:59;;;;;;;16.40;10.48;;;;;;;;;;5134497;27;20051;-72
2022/02/16 02:36:26;;;;;;;17.35;10.85;;;;;;;;;;5135839;27;20119;-73
2022/02/16 02:38:52;;;;;;;16.38;10.20;;;;;;;;;;5135478;27;20030;-73
2022/02/16 02:41:18;;;;;;;21.17;11.35;;;;;;;;;;5135713;27;20023;-73
2022/02/16 02:43:45;;;;;;;23.10;12.80;;;;;;;;;;5135715;27;20023;-73
2022/02/16 02:46:11;;;;;;;19.30;13.18;;;;;;;;;;5135331;27;20022;-73
2022/02/16 02:48:38;;;;;;;25.10;12.48;;;;;;;;;;5135599;27;20045;-71
2022/02/16 02:51:04;;;;;;;20.42;11.55;;;;;;;;;;5135530;27;20023;-73
2022/02/16 02:53:30;;;;;;;21.20;11.88;;;;;;;;;;5135257;27;20382;-73
2022/02/16 02:55:56;;;;;;;15.77;10.35;;;;;;;;;;5135506;27;20039;-74
2022/02/16 02:58:23;;;;;;;22.80;12.85;;;;;;;;;;5134434;27;20424;-74
2022/02/16 03:00:49;;;;;;;35.78;19.58;;;;;;;;;;5135156;27;20022;-73
2022/02/16 03:03:15;;;;;;;57.53;25.85;;;;;;;;;;5134004;27;20102;-73
2022/02/16 03:05:42;;;;;;;32.65;18.13;;;;;;;;;;5134908;27;20103;-73
2022/02/16 03:08:08;;;;;;;30.25;16.25;;;;;;;;;;5133915;27;20483;-73
2022/02/16 03:10:34;;;;;;;26.60;13.98;;;;;;;;;;5135145;27;20023;-73
2022/02/16 03:13:00;;;;;;;19.55;11.05;;;;;;;;;;5133316;27;20045;-73
2022/02/16 03:15:26;;;;;;;23.75;13.05;;;;;;;;;;5134710;27;20070;-73
2022/02/16 03:17:52;;;;;;;21.55;11.70;;;;;;;;;;5135012;27;20387;-73
2022/02/16 03:20:19;;;;;;;27.20;13.55;;;;;;;;;;5134622;27;20023;-73
2022/02/16 03:22:45;;;;;;;30.45;14.65;;;;;;;;;;5133558;27;20487;-73
2022/02/16 03:25:11;;;;;;;24.95;14.20;;;;;;;;;;5133552;27;20049;-73
2022/02/16 03:27:38;;;;;;;32.90;15.75;;;;;;;;;;5134432;27;20047;-73
2022/02/16 03:30:06;;;;;;;26.15;15.32;;;;;;;;;;5135061;27;20023;-73
2022/02/16 03:32:32;;;;;;;33.67;17.92;;;;;;;;;;5133401;27;20068;-73
2022/02/16 03:34:59;;;;;;;27.80;16.77;;;;;;;;;;5134382;27;20038;-73
2022/02/16 03:37:25;;;;;;;81.07;49.67;;;;;;;;;;5134715;27;20016;-73
2022/02/16 03:39:51;;;;;;;46.35;27.88;;;;;;;;;;5133371;27;20032;-73
2022/02/16 03:42:19;;;;;;;33.38;20.90;;;;;;;;;;5134281;27;20026;-73
2022/02/16 03:44:45;;;;;;;38.67;22.42;;;;;;;;;;5133205;27;20031;-73
2022/02/16 03:47:11;;;;;;;35.50;20.70;;;;;;;;;;5133219;27;20486;-73
2022/02/16 03:49:37;;;;;;;26.40;15.18;;;;;;;;;;5134066;27;20027;-73
2022/02/16 03:52:04;;;;;;;33.50;19.73;;;;;;;;;;5134757;27;20023;-73
2022/02/16 03:54:31;;;;;;;47.20;25.60;;;;;;;;;;5133927;27;20054;-73
2022/02/16 03:56:57;;;;;;;34.90;21.75;;;;;;;;;;5133052;27;20121;-73
2022/02/16 03:59:23;;;;;;;47.20;26.30;;;;;;;;;;5134339;27;20019;-73
2022/02/16 04:01:49;;;;;;;39.78;21.85;;;;;;;;;;5133856;27;20027;-73
2022/02/16 04:04:15;;;;;;;27.95;17.98;;;;;;;;;;5134322;27;20102;-73
2022/02/16 04:06:41;;;;;;;28.55;16.73;;;;;;;;;;5132909;27;20046;-71
2022/02/16 04:09:08;;;;;;;30.30;16.23;;;;;;;;;;5133830;27;20015;-73
2022/02/16 04:11:34;;;;;;;21.00;12.75;;;;;;;;;;5132832;27;20114;-73
2022/02/16 04:14:00;;;;;;;32.85;17.92;;;;;;;;;;5134130;27;20039;-73
2022/02/16 04:16:26;;;;;;;35.90;20.75;;;;;;;;;;5132525;28;20135;-73
2022/02/16 04:18:52;;;;;;;39.38;21.80;;;;;;;;;;5134303;28;20024;-73
2022/02/16 04:21:18;;;;;;;42.47;21.13;;;;;;;;;;5134385;28;20027;-73
2022/02/16 04:23:45;;;;;;;44.10;21.48;;;;;;;;;;5132429;28;20023;-73
2022/02/16 04:26:11;;;;;;;26.50;16.98;;;;;;;;;;5134024;28;20024;-73
2022/02/16 04:28:38;;;;;;;39.72;20.85;;;;;;;;;;5133936;28;20020;-73
2022/02/16 04:31:04;;;;;;;40.13;20.73;;;;;;;;;;5133676;28;20048;-73
2022/02/16 04:33:30;;;;;;;43.60;22.00;;;;;;;;;;5132587;28;20023;-73
2022/02/16 04:35:56;;;;;;;66.72;33.28;;;;;;;;;;5133855;27;20035;-73
2022/02/16 04:38:22;;;;;;;49.10;26.67;;;;;;;;;;5133608;28;20071;-73
2022/02/16 04:40:49;;;;;;;42.38;22.63;;;;;;;;;;5132484;28;20506;-73
2022/02/16 04:43:15;;;;;;;33.90;19.92;;;;;;;;;;5133846;28;20471;-73
2022/02/16 04:45:41;;;;;;;30.83;17.63;;;;;;;;;;5133509;28;20027;-73
2022/02/16 04:48:07;;;;;;;30.95;17.20;;;;;;;;;;5133929;28;20034;-73
2022/02/16 04:50:34;;;;;;;33.28;18.80;;;;;;;;;;5133800;28;20027;-73
2022/02/16 04:53:00;;;;;;;28.67;17.50;;;;;;;;;;5133384;27;20043;-73
2022/02/16 04:55:27;;;;;;;30.38;16.73;;;;;;;;;;5133954;28;20088;-73
2022/02/16 04:57:54;;;;;;;29.42;16.88;;;;;;;;;;5133498;27;20101;-73
2022/02/16 05:00:20;;;;;;;26.92;15.32;;;;;;;;;;5134011;28;20027;-71
2022/02/16 05:02:47;;;;;;;24.70;14.32;;;;;;;;;;5133647;28;20027;-73
2022/02/16 05:05:13;;;;;;;64.07;33.33;;;;;;;;;;5133248;28;20479;-72
2022/02/16 05:07:39;;;;;;;46.70;25.98;;;;;;;;;;5132415;28;20027;-73
2022/02/16 05:10:06;;;;;;;47.00;25.83;;;;;;;;;;5133579;28;20076;-73
2022/02/16 05:12:33;;;;;;;47.65;24.13;;;;;;;;;;5131853;28;20442;-73
2022/02/16 05:15:02;;;;;;;44.83;23.90;;;;;;;;;;5131934;28;20053;-73
2022/02/16 05:17:29;;;;;;;37.38;20.50;;;;;;;;;;5133491;28;20023;-78
2022/02/16 05:19:55;;;;;;;36.20;21.10;;;;;;;;;;5133826;28;20403;-85
2022/02/16 05:22:22;;;;;;;46.10;24.73;;;;;;;;;;5134508;27;20046;-82
2022/02/16 05:24:48;;;;;;;33.60;19.15;;;;;;;;;;5136467;27;20398;-81
2022/02/16 05:27:15;;;;;;;32.83;20.42;;;;;;;;;;5136847;27;20156;-85
2022/02/16 05:29:42;;;;;;;58.85;30.02;;;;;;;;;;5138211;27;20076;-84
2022/02/16 05:32:08;;;;;;;48.42;27.30;;;;;;;;;;5137984;27;20023;-85
2022/02/16 05:34:35;;;;;;;46.20;27.10;;;;;;;;;;5135987;27;20413;-85
2022/02/16 05:37:01;;;;;;;84.63;46.50;;;;;;;;;;5137650;27;20027;-86
2022/02/16 05:39:27;;;;;;;60.70;35.33;;;;;;;;;;5137678;27;20524;-85
2022/02/16 05:41:53;;;;;;;49.95;31.23;;;;;;;;;;5136155;27;20117;-85
2022/02/16 05:44:19;;;;;;;66.20;40.40;;;;;;;;;;5137413;27;20020;-84
2022/02/16 05:46:46;;;;;;;58.72;33.53;;;;;;;;;;5136161;27;20023;-82
2022/02/16 05:49:12;;;;;;;157.35;81.07;;;;;;;;;;5137237;27;20063;-84
2022/02/16 05:51:39;;;;;;;74.15;41.88;;;;;;;;;;5137415;27;20031;-83
2022/02/16 05:54:05;;;;;;;80.20;45.92;;;;;;;;;;5135527;27;20026;-83
2022/02/16 05:56:32;;;;;;;56.63;33.53;;;;;;;;;;5135782;27;20399;-84
2022/02/16 05:58:58;;;;;;;64.97;37.15;;;;;;;;;;5135842;27;20061;-85
2022/02/16 06:01:24;;;;;;;50.72;31.05;;;;;;;;;;5137179;27;20478;-85
2022/02/16 06:03:51;;;;;;;46.28;28.80;;;;;;;;;;5129647;27;20486;-83
2022/02/16 06:06:18;;;;;;;49.22;27.17;;;;;;;;;;5113307;28;20028;-83
2022/02/16 06:08:47;;;;;;;67.82;37.60;;;;;;;;;;5115199;28;20047;-81
2022/02/16 06:11:13;;;;;;;67.40;39.33;;;;;;;;;;5118004;28;20103;-85
2022/02/16 06:13:40;;;;;;;71.80;41.45;;;;;;;;;;5116730;28;20020;-80
2022/02/16 06:16:06;;;;;;;76.25;45.13;;;;;;;;;;5115764;28;20032;-84
2022/02/16 06:18:32;;;;;;;65.43;40.92;;;;;;;;;;5115475;28;20035;-83
2022/02/16 06:20:59;;;;;;;73.00;42.45;;;;;;;;;;5115055;28;20019;-85
2022/02/16 06:23:25;;;;;;;52.95;30.75;;;;;;;;;;5115402;28;20012;-84
2022/02/16 06:25:51;;;;;;;73.72;43.88;;;;;;;;;;5110721;28;20387;-74
2022/02/16 06:28:17;;;;;;;86.55;45.75;;;;;;;;;;5114517;28;20049;-72
2022/02/16 06:30:44;;;;;;;96.13;56.25;;;;;;;;;;5114408;28;20028;-72
2022/02/16 06:33:10;;;;;;;89.45;52.00;;;;;;;;;;5112044;28;20011;-76
2022/02/16 06:35:37;;;;;;;58.15;32.72;;;;;;;;;;5113133;28;20043;-74
2022/02/16 06:38:06;;;;;;;52.30;30.08;;;;;;;;;;5113037;28;20028;-74
2022/02/16 06:40:32;;;;;;;76.03;38.22;;;;;;;;;;5113709;28;20027;-74
2022/02/16 06:42:58;;;;;;;47.58;27.77;;;;;;;;;;5114804;28;20026;-74
2022/02/16 06:45:25;;;;;;;43.33;28.75;;;;;;;;;;5113117;28;20043;-73
2022/02/16 06:47:51;;;;;;;40.33;22.15;;;;;;;;;;5114573;28;20046;-74
2022/02/16 06:50:18;;;;;;;43.22;25.10;;;;;;;;;;5114543;28;20467;-71
2022/02/16 06:52:44;;;;;;;39.63;24.23;;;;;;;;;;5113690;28;20031;-75
2022/02/16 06:55:10;;;;;;;45.55;26.50;;;;;;;;;;5114686;28;20035;-75
2022/02/16 06:57:37;;;;;;;44.13;25.70;;;;;;;;;;5114367;28;20028;-74
2022/02/16 07:00:04;;;;;;;36.03;23.92;;;;;;;;;;5113175;28;20027;-74
2022/02/16 07:02:30;;;;;;;49.03;30.08;;;;;;;;;;5114559;28;20466;-74
2022/02/16 07:04:56;;;;;;;51.38;34.42;;;;;;;;;;5114307;28;20051;-74
2022/02/16 07:07:22;;;;;;;49.72;32.75;;;;;;;;;;5113048;28;20019;-75
2022/02/16 07:09:48;;;;;;;39.30;27.17;;;;;;;;;;5114261;28;20102;-75
2022/02/16 07:12:15;;;;;;;45.42;30.20;;;;;;;;;;5112245;28;20066;-74
2022/02/16 07:14:41;;;;;;;44.13;27.70;;;;;;;;;;5112111;28;20511;-73
2022/02/16 07:17:07;;;;;;;39.15;23.85;;;;;;;;;;5113772;28;20077;-73
2022/02/16 07:19:33;;;;;;;38.20;23.80;;;;;;;;;;5096159;27;20535;-74
2022/02/16 07:21:59;;;;;;;40.85;25.13;;;;;;;;;;5113117;28;20393;-73
2022/02/16 07:24:26;;;;;;;40.75;23.88;;;;;;;;;;5092707;28;20020;-75
2022/02/16 07:26:52;;;;;;;30.80;17.90;;;;;;;;;;5093252;28;20031;-71
2022/02/16 07:29:18;;;;;;;28.35;15.70;;;;;;;;;;5093275;28;20379;-74
2022/02/16 07:31:44;;;;;;;35.35;18.77;;;;;;;;;;5104887;28;20027;-77
2022/02/16 07:34:11;;;;;;;27.25;16.83;;;;;;;;;;5113285;28;20019;-75
2022/02/16 07:36:37;;;;;;;22.60;14.88;;;;;;;;;;5111133;28;20057;-77
2022/02/16 07:39:03;;;;;;;27.05;16.50;;;;;;;;;;5111790;28;20388;-73
2022/02/16 07:41:29;;;;;;;21.50;13.63;;;;;;;;;;5111968;28;20024;-74
2022/02/16 07:43:56;;;;;;;21.17;12.60;;;;;;;;;;5113116;28;20108;-73
2022/02/16 07:46:23;;;;;;;19.85;12.80;;;;;;;;;;5111997;28;20020;-72
2022/02/16 07:48:49;;;;;;;27.08;16.20;;;;;;;;;;5112093;28;20058;-74
2022/02/16 07:51:15;;;;;;;26.88;19.13;;;;;;;;;;5113836;28;20408;-75
2022/02/16 07:53:42;;;;;;;22.50;15.15;;;;;;;;;;5112223;28;20048;-78
2022/02/16 07:56:08;;;;;;;24.92;16.00;;;;;;;;;;5113160;28;20046;-75
2022/02/16 07:58:34;;;;;;;33.90;17.80;;;;;;;;;;5112523;28;20519;-75
2022/02/16 08:01:01;;;;;;;21.27;13.10;;;;;;;;;;5077985;28;20126;-75
2022/02/16 08:03:27;;;;;;;25.70;15.15;;;;;;;;;;5091402;28;20047;-72
2022/02/16 08:05:53;;;;;;;23.25;14.30;;;;;;;;;;5092524;28;20028;-74
2022/02/16 08:08:19;;;;;;;23.23;10.57;;;;;;;;;;5092244;28;20383;-74
2022/02/16 08:10:49;;;;;;;21.38;13.45;;;;;;;;;;5092495;28;20379;-76
2022/02/16 08:13:16;;;;;;;20.63;12.70;;;;;;;;;;5092502;28;20023;-76
2022/02/16 08:15:49;;;;;;;18.02;10.57;;;;;;;;;;5096249;28;20052;-76
2022/02/16 08:18:15;;;;;;;26.63;15.80;;;;;;;;;;5091646;28;20019;-74
2022/02/16 08:20:42;;;;;;;26.38;16.23;;;;;;;;;;5102709;28;20016;-73
2022/02/16 08:23:10;;;;;;;37.92;22.90;;;;;;;;;;5091975;28;20029;-74
2022/02/16 08:25:36;;;;;;;20.92;12.65;;;;;;;;;;5092496;28;20046;-73
2022/02/16 08:28:03;;;;;;;21.38;12.57;;;;;;;;;;5092416;28;20016;-73
2022/02/16 08:30:29;;;;;;;23.58;14.35;;;;;;;;;;5091991;28;20035;-76
2022/02/16 08:32:55;;;;;;;40.60;22.63;;;;;;;;;;5088885;28;20020;-75
2022/02/16 08:35:21;;;;;;;30.00;17.63;;;;;;;;;;5092479;28;20035;-74
2022/02/16 08:37:48;;;;;;;21.77;14.48;;;;;;;;;;5091157;28;20051;-75
2022/02/16 08:40:14;;;;;;;35.60;19.52;;;;;;;;;;5091794;28;20111;-74
2022/02/16 08:42:41;;;;;;;21.85;11.80;;;;;;;;;;5107560;28;20479;-75
2022/02/16 08:45:07;;;;;;;21.95;11.98;;;;;;;;;;5111116;28;20035;-75
2022/02/16 08:47:33;;;;;;;22.08;13.23;;;;;;;;;;5108427;28;20038;-74
2022/02/16 08:49:59;;;;;;;22.30;12.27;;;;;;;;;;5108967;28;20029;-75
2022/02/16 08:52:26;;;;;;;19.17;10.10;;;;;;;;;;5111077;28;20015;-75
2022/02/16 08:54:52;;;;;;;18.35;9.65;;;;;;;;;;5110766;28;20020;-78
2022/02/16 08:57:19;;;;;;;20.17;10.10;;;;;;;;;;5110544;28;20060;-76
2022/02/16 08:59:45;;;;;;;18.00;10.18;;;;;;;;;;5108856;28;20011;-74
2022/02/16 09:02:11;;;;;;;20.30;11.82;;;;;;;;;;5113136;28;20027;-73
2022/02/16 09:04:38;;;;;;;30.33;16.58;;;;;;;;;;5112881;28;20027;-73
2022/02/16 09:11:32;;;;;;;22.40;12.93;;;;;;;;;;5108604;27;20412;-75
2022/02/16 09:13:59;;;;;;;19.92;10.43;;;;;;;;;;5109189;28;20036;-74
2022/02/16 09:16:25;;;;;;;24.58;13.27;;;;;;;;;;5109740;28;20731;-73
2022/02/16 09:18:51;;;;;;;17.48;11.13;;;;;;;;;;5109408;28;20093;-72
2022/02/16 09:21:18;;;;;;;22.30;11.45;;;;;;;;;;5110020;28;20058;-72
2022/02/16 09:25:50;;;;;;;22.33;14.40;;;;;;;;;;5109993;27;20470;-74
2022/02/16 09:28:16;;;;;;;14.32;8.63;;;;;;;;;;5110245;28;20031;-74
2022/02/16 09:30:42;;;;;;;13.02;7.47;;;;;;;;;;5107521;28;20035;-75
2022/02/16 09:34:12;;;;;;;20.27;10.70;;;;;;;;;;5069009;27;20524;-74
2022/02/16 09:38:20;;;;;;;20.92;11.45;;;;;;;;;;5110075;27;20461;-74
2022/02/16 09:40:48;;;;;;;20.13;11.68;;;;;;;;;;5109956;28;20081;-75
2022/02/16 09:43:17;;;;;;;32.28;18.80;;;;;;;;;;5110353;28;20026;-76
2022/02/16 09:45:44;;;;;;;28.42;17.63;;;;;;;;;;5110405;28;20493;-75
2022/02/16 09:48:41;;;;;;;36.20;20.67;;;;;;;;;;5070324;28;20930;-73
2022/02/16 09:51:59;;;;;;;40.63;22.17;;;;;;;;;;5110543;27;20385;-72
2022/02/16 09:54:26;;;;;;;20.60;11.90;;;;;;;;;;5106089;28;20440;-74
2022/02/16 09:56:52;;;;;;;27.15;15.82;;;;;;;;;;5103995;28;20028;-74
2022/02/16 09:59:18;;;;;;;20.05;12.55;;;;;;;;;;5105110;28;20027;-75
2022/02/16 10:07:21;;;;;;;18.77;11.18;;;;;;;;;;5108615;27;20310;-69
2022/02/16 10:09:48;;;;;;;24.42;16.17;;;;;;;;;;5081934;28;20032;-73
2022/02/16 10:12:15;;;;;;;24.45;13.85;;;;;;;;;;5087687;28;20048;-73
2022/02/16 10:15:36;;;;;;;14.85;9.05;;;;;;;;;;5171854;27;20646;-83
2022/02/16 10:18:10;;;;;;;16.88;9.88;;;;;;;;;;5150662;27;20059;-80
2022/02/16 10:20:37;;;;;;;15.93;10.18;;;;;;;;;;5135172;27;20026;-83
2022/02/16 10:24:19;;;;;;;11.77;7.32;;;;;;;;;;5099961;27;20431;-80
2022/02/16 10:26:53;;;;;;;36.22;19.10;;;;;;;;;;5066798;28;20025;-78
2022/02/16 10:29:20;;;;;;;23.27;12.68;;;;;;;;;;5069316;28;20029;-79
2022/02/16 10:31:47;;;;;;;25.80;13.85;;;;;;;;;;5064423;28;20017;-79
2022/02/16 10:34:13;;;;;;;24.15;11.73;;;;;;;;;;5068318;28;20048;-84
2022/02/16 10:38:57;;;;;;;19.88;12.57;;;;;;;;;;5110381;27;20389;-81
2022/02/16 10:41:24;;;;;;;23.77;14.38;;;;;;;;;;5110102;28;20027;-84
2022/02/16 10:43:52;;;;;;;21.83;10.25;;;;;;;;;;5110158;28;20464;-81
2022/02/16 10:46:20;;;;;;;17.60;9.40;;;;;;;;;;5107879;28;20024;-72
2022/02/16 10:48:47;;;;;;;14.55;8.30;;;;;;;;;;5104996;28;20048;-72
2022/02/16 10:52:18;;;;;;;15.95;7.55;;;;;;;;;;5108365;27;20473;-73
2022/02/16 10:54:52;;;;;;;10.90;5.38;;;;;;;;;;5107514;28;20042;-76
2022/02/16 10:57:18;;;;;;;12.52;7.28;;;;;;;;;;5107422;28;20036;-78
2022/02/16 11:00:02;;;;;;;13.48;8.32;;;;;;;;;;5170322;27;20115;-75
2022/02/16 11:02:29;;;;;;;14.30;8.63;;;;;;;;;;5149975;27;20025;-73
2022/02/16 11:04:56;;;;;;;13.48;7.38;;;;;;;;;;5150119;27;20446;-73
2022/02/16 11:07:23;;;;;;;16.65;7.13;;;;;;;;;;5150450;27;20029;-75
2022/02/16 11:09:53;;;;;;;14.15;8.00;;;;;;;;;;5149688;27;20137;-73
2022/02/16 11:12:19;;;;;;;13.40;7.45;;;;;;;;;;5150088;27;20023;-79
2022/02/16 11:14:45;;;;;;;13.32;6.68;;;;;;;;;;5131853;27;20048;-76
2022/02/16 11:17:11;;;;;;;13.73;7.28;;;;;;;;;;5149962;27;20386;-75
2022/02/16 11:20:18;;;;;;;12.50;7.90;;;;;;;;;;5110467;27;20760;-75
2022/02/16 11:22:50;;;;;;;15.52;8.55;;;;;;;;;;5110526;28;20024;-74
2022/02/16 11:25:46;;;;;;;13.52;7.68;;;;;;;;;;5110359;27;20512;-75
2022/02/16 11:28:12;;;;;;;12.48;7.72;;;;;;;;;;5109251;28;20032;-74
2022/02/16 11:40:13;;;;;;;11.32;6.35;;;;;;;;;;5110300;27;20396;-80
2022/02/16 11:42:39;;;;;;;12.35;6.47;;;;;;;;;;5109330;28;20028;-77
2022/02/16 11:45:09;;;;;;;13.57;6.38;;;;;;;;;;5110996;28;20479;-78
2022/02/16 11:47:36;;;;;;;14.77;6.65;;;;;;;;;;5110554;28;20023;-76
2022/02/16 11:50:14;;;;;;;13.75;6.82;;;;;;;;;;5110050;28;20384;-74
2022/02/16 11:52:51;;;;;;;13.73;6.70;;;;;;;;;;5110056;28;20043;-73
2022/02/16 11:55:28;;;;;;;13.55;6.28;;;;;;;;;;5108410;28;20379;-74
2022/02/16 11:57:55;;;;;;;14.35;7.40;;;;;;;;;;5101356;28;20846;-77
2022/02/16 12:02:22;;;;;;;21.38;8.73;;;;;;;;;;5108873;27;20405;-77
2022/02/16 12:06:40;;;;;;;12.85;7.68;;;;;;;;;;5069946;27;20494;-75
2022/02/16 12:09:27;;;;;;;14.52;8.02;;;;;;;;;;5067667;28;20851;-74
2022/02/16 12:12:48;;;;;;;18.60;9.98;;;;;;;;;;5108853;27;20815;-76
2022/02/16 12:17:02;;;;;;;18.38;8.80;;;;;;;;;;5108537;27;20530;-77
2022/02/16 12:20:57;;;;;;;27.10;11.15;;;;;;;;;;5103022;27;20807;-75
2022/02/16 12:23:24;;;;;;;19.00;11.75;;;;;;;;;;5085525;28;20028;-75
2022/02/16 12:26:04;;;;;;;13.73;7.47;;;;;;;;;;5085400;28;20078;-77
2022/02/16 12:28:30;;;;;;;13.23;6.00;;;;;;;;;;5069129;28;20473;-75
2022/02/16 12:32:47;;;;;;;17.08;7.75;;;;;;;;;;5108598;27;20461;-75
2022/02/16 12:35:13;;;;;;;12.40;6.78;;;;;;;;;;5108465;28;20487;-74
2022/02/16 12:39:55;;;;;;;11.65;6.65;;;;;;;;;;5109776;27;20402;-74
2022/02/16 12:42:29;;;;;;;12.45;6.97;;;;;;;;;;5102401;28;20032;-74
2022/02/16 12:44:56;;;;;;;12.30;6.85;;;;;;;;;;5088071;28;20020;-74
2022/02/16 12:47:23;;;;;;;13.52;6.95;;;;;;;;;;5087891;28;20051;-74
2022/02/16 12:50:08;;;;;;;11.40;5.03;;;;;;;;;;5106778;27;20548;-74
2022/02/16 12:52:34;;;;;;;11.48;6.30;;;;;;;;;;5089165;28;20032;-75
2022/02/16 12:55:03;;;;;;;11.32;4.65;;;;;;;;;;5090379;28;20028;-73
2022/02/16 12:58:30;;;;;;;10.65;4.65;;;;;;;;;;5110784;27;20457;-74
2022/02/16 13:03:42;;;;;;;10.13;5.97;;;;;;;;;;5110735;27;20750;-75
2022/02/16 13:09:25;;;;;;;8.98;5.82;;;;;;;;;;5050534;28;20451;-75
2022/02/16 13:11:55;;;;;;;13.52;6.30;;;;;;;;;;5049217;28;20025;-75
2022/02/16 13:14:31;;;;;;;9.73;5.85;;;;;;;;;;5049883;28;20033;-73
2022/02/16 13:16:58;;;;;;;11.13;5.95;;;;;;;;;;5048829;28;20469;-74
2022/02/16 13:19:41;;;;;;;11.70;7.25;;;;;;;;;;5035703;28;20072;-75
2022/02/16 13:22:34;;;;;;;10.40;5.50;;;;;;;;;;5110195;27;20818;-75
2022/02/16 13:25:01;;;;;;;15.10;8.32;;;;;;;;;;5109579;28;20110;-74
2022/02/16 13:27:41;;;;;;;17.58;8.93;;;;;;;;;;5110449;28;20383;-74
2022/02/16 13:30:08;;;;;;;10.18;5.60;;;;;;;;;;5110440;28;20551;-74
2022/02/16 13:33:57;;;;;;;19.65;11.90;;;;;;;;;;5050460;27;20985;-76
2022/02/16 13:36:26;;;;;;;14.55;7.38;;;;;;;;;;5050565;28;20033;-75
2022/02/16 13:39:08;;;;;;;13.10;6.80;;;;;;;;;;5049630;28;20021;-74
2022/02/16 13:41:36;;;;;;;12.40;7.38;;;;;;;;;;5049536;28;20021;-73
2022/02/16 13:44:03;;;;;;;10.57;5.65;;;;;;;;;;5050198;28;20456;-76
2022/02/16 13:46:31;;;;;;;10.05;5.25;;;;;;;;;;5050066;28;20098;-75
2022/02/16 13:49:10;;;;;;;11.98;5.65;;;;;;;;;;5049074;28;20378;-75
2022/02/16 13:54:37;;;;;;;9.57;5.60;;;;;;;;;;5029268;28;20410;-74
2022/02/16 13:58:12;;;;;;;13.00;7.20;;;;;;;;;;5110306;27;20446;-75
2022/02/16 14:01:11;;;;;;;16.85;9.13;;;;;;;;;;5110690;27;20481;-76
2022/02/16 14:03:38;;;;;;;10.55;5.80;;;;;;;;;;5109704;28;20016;-74
2022/02/16 14:06:08;;;;;;;12.50;8.30;;;;;;;;;;5110780;28;20028;-74
2022/02/16 14:08:34;;;;;;;17.90;8.45;;;;;;;;;;5110282;28;20024;-75
2022/02/16 14:11:01;;;;;;;19.85;10.75;;;;;;;;;;5110701;28;20055;-73
2022/02/16 14:13:27;;;;;;;17.15;9.02;;;;;;;;;;5110574;28;20020;-74
2022/02/16 14:15:55;;;;;;;11.02;6.03;;;;;;;;;;5110783;28;20015;-75
2022/02/16 14:18:22;;;;;;;27.85;16.73;;;;;;;;;;5110433;28;20103;-76
2022/02/16 14:20:48;;;;;;;24.10;15.60;;;;;;;;;;5110284;28;20060;-77
2022/02/16 14:24:54;;;;;;;17.23;11.55;;;;;;;;;;5099405;27;1592283;-75
2022/02/16 14:27:20;;;;;;;16.17;9.38;;;;;;;;;;5131512;28;20406;-76
2022/02/16 14:30:43;;;;;;;10.60;6.65;;;;;;;;;;5108799;27;20416;-77
2022/02/16 14:33:52;;;;;;;15.60;8.43;;;;;;;;;;5107756;27;20448;-85
2022/02/16 14:36:18;;;;;;;15.77;9.25;;;;;;;;;;5110929;28;20036;-75
2022/02/16 14:38:44;;;;;;;16.05;10.10;;;;;;;;;;5109434;28;20050;-76
2022/02/16 14:41:40;;;;;;;14.80;8.50;;;;;;;;;;5047600;28;20475;-74
2022/02/16 14:44:10;;;;;;;20.77;7.30;;;;;;;;;;5050051;28;20025;-76
2022/02/16 14:46:37;;;;;;;18.08;9.35;;;;;;;;;;5050752;28;20083;-75
2022/02/16 14:51:08;;;;;;;30.08;17.60;;;;;;;;;;5030442;28;21004;-76
2022/02/16 14:58:50;;;;;;;17.88;10.68;;;;;;;;;;5111092;27;20420;-75
2022/02/16 15:04:41;;;;;;;20.75;14.00;;;;;;;;;;5110789;27;20462;-78
2022/02/16 15:07:49;;;;;;;17.00;11.43;;;;;;;;;;5030540;28;20419;-74
2022/02/16 15:10:15;;;;;;;20.52;12.43;;;;;;;;;;5030102;28;20033;-76
2022/02/16 15:12:42;;;;;;;17.50;11.52;;;;;;;;;;5030675;28;20049;-76
2022/02/16 15:15:08;;;;;;;18.13;10.98;;;;;;;;;;5030621;28;20017;-76
2022/02/16 15:17:35;;;;;;;18.50;10.60;;;;;;;;;;5029993;28;20052;-77
2022/02/16 15:21:06;;;;;;;13.85;9.20;;;;;;;;;;5111613;27;20401;-77
2022/02/16 15:26:50;;;;;;;17.02;11.48;;;;;;;;;;5051004;27;20417;-78
2022/02/16 15:30:36;;;;;;;24.35;16.35;;;;;;;;;;5111213;27;20415;-75
2022/02/16 15:33:03;;;;;;;16.63;10.55;;;;;;;;;;5110879;28;20024;-77
2022/02/16 15:37:26;;;;;;;17.77;10.82;;;;;;;;;;5050539;28;20421;-77
2022/02/16 15:39:52;;;;;;;22.23;10.57;;;;;;;;;;5050092;28;20025;-77